sensor_id;sensor_type;location;lat;lon;timestamp;temperature;humidity
70928;SHT31;58587;53.034;18.576;2023-03-01T15:17:35;11.47;49.96
70928;SHT31;58587;53.034;18.576;2023-03-01T15:20:05;11.15;51.08
70928;SHT31;58587;53.034;18.576;2023-03-01T15:22:31;10.89;52.22
70928;SHT31;58587;53.034;18.576;2023-03-01T15:24:57;10.65;53.29
70928;SHT31;58587;53.034;18.576;2023-03-01T15:27:24;10.48;53.48
70928;SHT31;58587;53.034;18.576;2023-03-01T15:29:54;10.29;53.87
70928;SHT31;58587;53.034;18.576;2023-03-01T15:35:00;9.83;55.61
70928;SHT31;58587;53.034;18.576;2023-03-01T15:37:48;9.59;56.71
70928;SHT31;58587;53.034;18.576;2023-03-01T15:40:22;9.39;57.10
70928;SHT31;58587;53.034;18.576;2023-03-01T15:43:04;9.15;58.11
70928;SHT31;58587;53.034;18.576;2023-03-01T15:45:31;8.94;59.42
70928;SHT31;58587;53.034;18.576;2023-03-01T15:48:14;8.77;59.44
70928;SHT31;58587;53.034;18.576;2023-03-01T15:50:41;8.57;60.81
70928;SHT31;58587;53.034;18.576;2023-03-01T15:53:13;8.39;61.35
70928;SHT31;58587;53.034;18.576;2023-03-01T15:55:39;8.25;60.77
70928;SHT31;58587;53.034;18.576;2023-03-01T15:58:22;8.06;61.97
70928;SHT31;58587;53.034;18.576;2023-03-01T16:00:49;7.81;63.56
70928;SHT31;58587;53.034;18.576;2023-03-01T16:03:17;7.64;63.92
70928;SHT31;58587;53.034;18.576;2023-03-01T16:05:47;7.44;64.46
70928;SHT31;58587;53.034;18.576;2023-03-01T16:08:12;7.28;64.88
70928;SHT31;58587;53.034;18.576;2023-03-01T16:10:40;7.13;65.60
70928;SHT31;58587;53.034;18.576;2023-03-01T16:13:05;6.97;66.20
70928;SHT31;58587;53.034;18.576;2023-03-01T16:15:32;6.83;66.21
70928;SHT31;58587;53.034;18.576;2023-03-01T16:17:59;6.71;66.36
70928;SHT31;58587;53.034;18.576;2023-03-01T16:20:25;6.53;67.25
70928;SHT31;58587;53.034;18.576;2023-03-01T16:22:51;6.39;67.26
70928;SHT31;58587;53.034;18.576;2023-03-01T16:25:18;6.24;68.20
70928;SHT31;58587;53.034;18.576;2023-03-01T16:27:45;6.11;68.56
70928;SHT31;58587;53.034;18.576;2023-03-01T16:30:12;5.98;68.71
70928;SHT31;58587;53.034;18.576;2023-03-01T16:32:42;5.75;69.32
70928;SHT31;58587;53.034;18.576;2023-03-01T16:35:09;5.63;69.49
70928;SHT31;58587;53.034;18.576;2023-03-01T16:37:35;5.57;69.52
70928;SHT31;58587;53.034;18.576;2023-03-01T16:40:02;5.40;70.41
70928;SHT31;58587;53.034;18.576;2023-03-01T16:42:33;5.29;70.29
70928;SHT31;58587;53.034;18.576;2023-03-01T16:44:58;5.18;70.80
70928;SHT31;58587;53.034;18.576;2023-03-01T16:47:24;5.02;71.43
70928;SHT31;58587;53.034;18.576;2023-03-01T16:49:52;4.98;71.71
70928;SHT31;58587;53.034;18.576;2023-03-01T16:52:18;4.84;71.93
70928;SHT31;58587;53.034;18.576;2023-03-01T16:54:43;4.69;72.65
70928;SHT31;58587;53.034;18.576;2023-03-01T16:57:09;4.61;72.80
70928;SHT31;58587;53.034;18.576;2023-03-01T16:59:34;4.47;73.45
70928;SHT31;58587;53.034;18.576;2023-03-01T17:02:00;4.37;73.48
70928;SHT31;58587;53.034;18.576;2023-03-01T17:04:25;4.27;73.63
70928;SHT31;58587;53.034;18.576;2023-03-01T17:06:50;4.18;74.06
70928;SHT31;58587;53.034;18.576;2023-03-01T17:09:16;4.03;74.51
70928;SHT31;58587;53.034;18.576;2023-03-01T17:11:42;3.91;74.72
70928;SHT31;58587;53.034;18.576;2023-03-01T17:14:08;3.91;74.43
70928;SHT31;58587;53.034;18.576;2023-03-01T17:16:33;3.76;75.39
70928;SHT31;58587;53.034;18.576;2023-03-01T17:18:59;3.68;75.74
70928;SHT31;58587;53.034;18.576;2023-03-01T17:21:25;3.65;75.57
70928;SHT31;58587;53.034;18.576;2023-03-01T17:23:55;3.54;76.10
70928;SHT31;58587;53.034;18.576;2023-03-01T17:26:21;3.42;76.33
70928;SHT31;58587;53.034;18.576;2023-03-01T17:28:46;3.36;76.90
70928;SHT31;58587;53.034;18.576;2023-03-01T17:31:15;3.29;76.76
70928;SHT31;58587;53.034;18.576;2023-03-01T17:33:41;3.27;76.41
70928;SHT31;58587;53.034;18.576;2023-03-01T17:36:06;3.18;76.81
70928;SHT31;58587;53.034;18.576;2023-03-01T17:38:32;3.09;77.34
70928;SHT31;58587;53.034;18.576;2023-03-01T17:41:00;3.03;77.03
70928;SHT31;58587;53.034;18.576;2023-03-01T17:43:26;3.00;77.40
70928;SHT31;58587;53.034;18.576;2023-03-01T17:45:51;2.94;77.60
70928;SHT31;58587;53.034;18.576;2023-03-01T17:48:19;2.80;78.00
70928;SHT31;58587;53.034;18.576;2023-03-01T17:50:44;2.79;77.92
70928;SHT31;58587;53.034;18.576;2023-03-01T17:53:10;2.77;77.91
70928;SHT31;58587;53.034;18.576;2023-03-01T17:55:37;2.72;78.24
70928;SHT31;58587;53.034;18.576;2023-03-01T17:58:03;2.60;78.73
70928;SHT31;58587;53.034;18.576;2023-03-01T18:00:29;2.53;79.07
70928;SHT31;58587;53.034;18.576;2023-03-01T18:02:54;2.49;79.14
70928;SHT31;58587;53.034;18.576;2023-03-01T18:05:20;2.46;79.27
70928;SHT31;58587;53.034;18.576;2023-03-01T18:07:45;2.43;79.53
70928;SHT31;58587;53.034;18.576;2023-03-01T18:10:10;2.34;79.71
70928;SHT31;58587;53.034;18.576;2023-03-01T18:12:36;2.29;79.80
70928;SHT31;58587;53.034;18.576;2023-03-01T18:15:03;2.23;79.75
70928;SHT31;58587;53.034;18.576;2023-03-01T18:17:28;2.19;79.94
70928;SHT31;58587;53.034;18.576;2023-03-01T18:19:53;2.09;80.40
70928;SHT31;58587;53.034;18.576;2023-03-01T18:22:20;2.09;80.45
70928;SHT31;58587;53.034;18.576;2023-03-01T18:24:46;2.05;80.36
70928;SHT31;58587;53.034;18.576;2023-03-01T18:27:11;2.01;80.65
70928;SHT31;58587;53.034;18.576;2023-03-01T18:29:36;1.97;81.05
70928;SHT31;58587;53.034;18.576;2023-03-01T18:32:02;1.99;80.79
70928;SHT31;58587;53.034;18.576;2023-03-01T18:34:28;1.92;81.02
70928;SHT31;58587;53.034;18.576;2023-03-01T18:36:53;1.88;80.89
70928;SHT31;58587;53.034;18.576;2023-03-01T18:39:21;1.81;81.39
70928;SHT31;58587;53.034;18.576;2023-03-01T18:41:46;1.74;81.54
70928;SHT31;58587;53.034;18.576;2023-03-01T18:44:12;1.68;82.25
70928;SHT31;58587;53.034;18.576;2023-03-01T18:46:37;1.67;82.26
70928;SHT31;58587;53.034;18.576;2023-03-01T18:49:04;1.62;82.42
70928;SHT31;58587;53.034;18.576;2023-03-01T18:51:30;1.59;82.97
70928;SHT31;58587;53.034;18.576;2023-03-01T18:53:56;1.58;82.83
70928;SHT31;58587;53.034;18.576;2023-03-01T18:56:25;1.58;82.89
70928;SHT31;58587;53.034;18.576;2023-03-01T18:58:51;1.52;82.86
70928;SHT31;58587;53.034;18.576;2023-03-01T19:01:21;1.46;82.74
70928;SHT31;58587;53.034;18.576;2023-03-01T19:03:47;1.44;82.76
70928;SHT31;58587;53.034;18.576;2023-03-01T19:06:13;1.46;82.94
70928;SHT31;58587;53.034;18.576;2023-03-01T19:08:39;1.37;83.21
70928;SHT31;58587;53.034;18.576;2023-03-01T19:11:06;1.36;83.23
70928;SHT31;58587;53.034;18.576;2023-03-01T19:13:36;1.30;83.71
70928;SHT31;58587;53.034;18.576;2023-03-01T19:16:07;1.26;84.02
70928;SHT31;58587;53.034;18.576;2023-03-01T19:18:33;1.23;84.17
70928;SHT31;58587;53.034;18.576;2023-03-01T19:21:00;1.22;84.32
70928;SHT31;58587;53.034;18.576;2023-03-01T19:23:27;1.19;84.38
70928;SHT31;58587;53.034;18.576;2023-03-01T19:26:05;1.20;84.27
70928;SHT31;58587;53.034;18.576;2023-03-01T19:28:31;1.19;84.41
70928;SHT31;58587;53.034;18.576;2023-03-01T19:31:02;1.20;84.86
70928;SHT31;58587;53.034;18.576;2023-03-01T19:33:29;1.16;84.83
70928;SHT31;58587;53.034;18.576;2023-03-01T19:35:55;1.13;84.45
70928;SHT31;58587;53.034;18.576;2023-03-01T19:38:20;1.16;84.86
70928;SHT31;58587;53.034;18.576;2023-03-01T19:40:46;1.16;84.40
70928;SHT31;58587;53.034;18.576;2023-03-01T19:43:11;1.23;84.73
70928;SHT31;58587;53.034;18.576;2023-03-01T19:45:36;1.26;84.84
70928;SHT31;58587;53.034;18.576;2023-03-01T19:48:02;1.23;84.48
70928;SHT31;58587;53.034;18.576;2023-03-01T19:50:27;1.22;84.55
70928;SHT31;58587;53.034;18.576;2023-03-01T19:52:53;1.33;84.92
70928;SHT31;58587;53.034;18.576;2023-03-01T19:55:18;1.28;85.23
70928;SHT31;58587;53.034;18.576;2023-03-01T19:57:43;1.33;85.64
70928;SHT31;58587;53.034;18.576;2023-03-01T20:00:09;1.28;85.32
70928;SHT31;58587;53.034;18.576;2023-03-01T20:02:34;1.26;85.02
70928;SHT31;58587;53.034;18.576;2023-03-01T20:05:00;1.26;85.27
70928;SHT31;58587;53.034;18.576;2023-03-01T20:07:25;1.23;84.91
70928;SHT31;58587;53.034;18.576;2023-03-01T20:09:50;1.17;84.76
70928;SHT31;58587;53.034;18.576;2023-03-01T20:12:16;1.10;84.83
70928;SHT31;58587;53.034;18.576;2023-03-01T20:14:43;1.07;84.99
70928;SHT31;58587;53.034;18.576;2023-03-01T20:17:09;1.07;84.76
70928;SHT31;58587;53.034;18.576;2023-03-01T20:19:34;1.08;84.70
70928;SHT31;58587;53.034;18.576;2023-03-01T20:21:59;1.08;85.18
70928;SHT31;58587;53.034;18.576;2023-03-01T20:24:25;1.07;85.15
70928;SHT31;58587;53.034;18.576;2023-03-01T20:26:50;1.03;84.87
70928;SHT31;58587;53.034;18.576;2023-03-01T20:29:15;0.92;84.69
70928;SHT31;58587;53.034;18.576;2023-03-01T20:31:41;0.85;84.59
70928;SHT31;58587;53.034;18.576;2023-03-01T20:34:06;0.80;84.49
70928;SHT31;58587;53.034;18.576;2023-03-01T20:36:32;0.73;84.51
70928;SHT31;58587;53.034;18.576;2023-03-01T20:38:58;0.70;84.36
70928;SHT31;58587;53.034;18.576;2023-03-01T20:41:24;0.65;84.77
70928;SHT31;58587;53.034;18.576;2023-03-01T20:43:52;0.61;85.01
70928;SHT31;58587;53.034;18.576;2023-03-01T20:46:21;0.55;84.98
70928;SHT31;58587;53.034;18.576;2023-03-01T20:48:48;0.49;85.10
70928;SHT31;58587;53.034;18.576;2023-03-01T20:51:16;0.45;84.98
70928;SHT31;58587;53.034;18.576;2023-03-01T20:53:41;0.44;84.76
70928;SHT31;58587;53.034;18.576;2023-03-01T20:56:11;0.44;84.69
70928;SHT31;58587;53.034;18.576;2023-03-01T20:58:37;0.38;84.58
70928;SHT31;58587;53.034;18.576;2023-03-01T21:01:05;0.32;84.77
70928;SHT31;58587;53.034;18.576;2023-03-01T21:03:31;0.26;84.82
70928;SHT31;58587;53.034;18.576;2023-03-01T21:05:58;0.24;85.21
70928;SHT31;58587;53.034;18.576;2023-03-01T21:08:24;0.22;85.43
70928;SHT31;58587;53.034;18.576;2023-03-01T21:10:53;0.19;85.72
70928;SHT31;58587;53.034;18.576;2023-03-01T21:13:19;0.17;85.76
70928;SHT31;58587;53.034;18.576;2023-03-01T21:15:55;0.14;86.09
70928;SHT31;58587;53.034;18.576;2023-03-01T21:18:21;0.07;86.10
70928;SHT31;58587;53.034;18.576;2023-03-01T21:20:47;0.04;85.82
70928;SHT31;58587;53.034;18.576;2023-03-01T21:23:13;-0.02;86.10
70928;SHT31;58587;53.034;18.576;2023-03-01T21:25:38;-0.03;86.51
70928;SHT31;58587;53.034;18.576;2023-03-01T21:28:03;-0.07;86.67
70928;SHT31;58587;53.034;18.576;2023-03-01T21:30:29;-0.07;86.59
70928;SHT31;58587;53.034;18.576;2023-03-01T21:32:55;-0.10;86.75
70928;SHT31;58587;53.034;18.576;2023-03-01T21:35:20;-0.10;86.70
70928;SHT31;58587;53.034;18.576;2023-03-01T21:37:46;-0.12;86.34
70928;SHT31;58587;53.034;18.576;2023-03-01T21:40:11;-0.13;86.54
70928;SHT31;58587;53.034;18.576;2023-03-01T21:42:37;-0.16;86.33
70928;SHT31;58587;53.034;18.576;2023-03-01T21:45:03;-0.17;86.48
70928;SHT31;58587;53.034;18.576;2023-03-01T21:47:29;-0.22;86.27
70928;SHT31;58587;53.034;18.576;2023-03-01T21:49:54;-0.22;86.57
70928;SHT31;58587;53.034;18.576;2023-03-01T21:52:19;-0.29;86.71
70928;SHT31;58587;53.034;18.576;2023-03-01T21:54:45;-0.27;86.66
70928;SHT31;58587;53.034;18.576;2023-03-01T21:57:10;-0.29;86.71
70928;SHT31;58587;53.034;18.576;2023-03-01T21:59:36;-0.31;87.12
70928;SHT31;58587;53.034;18.576;2023-03-01T22:02:02;-0.31;87.21
70928;SHT31;58587;53.034;18.576;2023-03-01T22:04:27;-0.31;86.88
70928;SHT31;58587;53.034;18.576;2023-03-01T22:06:52;-0.38;86.65
70928;SHT31;58587;53.034;18.576;2023-03-01T22:09:20;-0.36;86.45
70928;SHT31;58587;53.034;18.576;2023-03-01T22:11:51;-0.40;86.38
70928;SHT31;58587;53.034;18.576;2023-03-01T22:14:19;-0.43;86.39
70928;SHT31;58587;53.034;18.576;2023-03-01T22:16:45;-0.45;86.33
70928;SHT31;58587;53.034;18.576;2023-03-01T22:19:13;-0.47;86.27
70928;SHT31;58587;53.034;18.576;2023-03-01T22:21:40;-0.53;86.33
70928;SHT31;58587;53.034;18.576;2023-03-01T22:55:01;-0.78;87.04
70928;SHT31;58587;53.034;18.576;2023-03-01T22:57:26;-0.78;87.51
